Laramie, WY

11:46 PM MDT on August 17, 2017 (GMT -0600)
Laramie Regional | | Change Station

Elev 7277 ft 41.31 °N, 105.67 °W | Updated 53 minutes ago

Partly Cloudy
Partly Cloudy
57 °F
Feels Like 57 °F
N
10
Wind Variable Wind from WSW

Today
High -- | Low -- °F
--% Chance of Precip.
Yesterday
High -- | Low -- °F
Precip. -- in
Pressure 29.94 in
Visibility 10.0 miles
Clouds Few 11000 ft
Dew Point 39 °F
Humidity 51%
Rainfall 0.02 in
Snow Depth Not available.
6:14 AM 7:58 PM
Waning Crescent, 16% visible
METAR KLAR 180453Z AUTO 24009KT 10SM FEW110 14/04 A3026 RMK AO2 SLP139 T01390039
Pressure 29.94 in
Visibility 10.0 miles
Clouds Few 11000 ft
Dew Point 39 °F
Humidity 51%
Rainfall 0.02 in
Snow Depth Not available.
6:14 AM 7:58 PM
Waning Crescent, 16% visible
METAR KLAR 180453Z AUTO 24009KT 10SM FEW110 14/04 A3026 RMK AO2 SLP139 T01390039

Get Severe Weather Alerts

Thanks for signing up!

Be on the lookout for a verification email in your inbox.

You'll start receiving the daily forecast at 6 AM.

×

10-Day Weather Forecast

Almanac

Astronomy

Aug. 17, 2017 Rise Set
Actual Time
Civil Twilight
Nautical Twilight
Astronomical Twilight
Moon
Length of Visible Light
Length of Day
Tomorrow will be .
, % of the Moon is Illuminated

Today's Extremes

State Highs State Lows

Community

WunderPhotos

Category 6

Welcome to Category 6. This is the collective home for Weather Underground's featured writeups by Dr. Jeff Masters (right), Bob Henson (left), Chris Burt, and other regular contributors.

Nearby

Air Quality

  Air Quality AQ Index Pollutant
Not available.

Snow Depth

Station Depth Elevation

Earthquake Activity

City Distance Mag. Time & Date
Minimum magnitude displayed is 2.5.

Coastal Water Temperatures

Place Temperature

Stations

Nearby Weather Stations

Station Location Temp. Windchill Dew Point Humidity Wind Precip. Elev Updated Type
                   

Watches & Warnings

There are currently no watches in effect.